Terminal Aerodrome Forecast
Issued by NWS

Home | Current Version | Previous Version | Text Only | Print | Product List | Glossary On
Versions: 1 2 3 4 5 6 7 8 9 10 11 12 13 14 15
000
FTUS41 KBTV 291739
TAFSLK
TAF
KSLK 291739Z 2918/3018 21008KT P6SM VCSH FEW060 BKN100
      TEMPO 2918/2921 4SM TS BKN040CB
     FM300000 22005KT P6SM OVC090
     FM300600 21006KT P6SM VCSH BKN080
     FM301500 22010G19KT P6SM VCSH BKN120=

USA.gov is the U.S. government's official web portal to all federal, state and local government web resources and services.